createdAt,value
2023-02-03T00:01:46.016Z,87.34
2023-02-03T00:04:12.489Z,85.86
2023-02-03T00:06:39.595Z,84.29
2023-02-03T00:09:06.099Z,84.45
2023-02-03T00:11:32.651Z,84.54
2023-02-03T00:13:59.329Z,85.24
2023-02-03T00:16:25.751Z,86.12
2023-02-03T00:18:52.185Z,84.57
2023-02-03T00:21:18.564Z,83.86
2023-02-03T00:23:44.901Z,83.61
2023-02-03T00:26:16.658Z,83.86
2023-02-03T00:28:43.256Z,85.15
2023-02-03T00:31:17.832Z,86.10
2023-02-03T00:33:44.325Z,84.79
2023-02-03T00:36:11.315Z,84.06
2023-02-03T00:38:37.693Z,85.05
2023-02-03T00:41:04.197Z,84.00
2023-02-03T00:43:30.666Z,85.74
2023-02-03T00:45:57.151Z,84.71
2023-02-03T00:48:23.529Z,84.28
2023-02-03T00:50:49.957Z,85.70
2023-02-03T00:53:16.356Z,84.06
2023-02-03T00:55:43.710Z,84.67
2023-02-03T00:58:10.248Z,84.41
2023-02-03T01:00:36.655Z,85.13
2023-02-03T01:03:03.328Z,85.59
2023-02-03T01:05:29.750Z,84.76
2023-02-03T01:07:56.147Z,84.21
2023-02-03T01:10:22.568Z,83.27
2023-02-03T01:12:48.953Z,83.94
2023-02-03T01:15:15.354Z,83.75
2023-02-03T01:17:41.731Z,84.34
2023-02-03T01:20:08.946Z,82.98
2023-02-03T01:22:35.325Z,83.95
2023-02-03T01:25:01.752Z,83.80
2023-02-03T01:27:28.060Z,83.68
2023-02-03T01:29:54.489Z,84.50
2023-02-03T01:32:20.986Z,84.52
2023-02-03T01:34:47.347Z,83.89
2023-02-03T01:37:17.049Z,85.35
2023-02-03T01:39:44.088Z,83.84
2023-02-03T01:42:15.174Z,83.30
2023-02-03T01:44:52.015Z,83.55
2023-02-03T01:47:27.787Z,83.31
2023-02-03T01:50:09.132Z,84.01
2023-02-03T01:52:37.728Z,85.37
2023-02-03T01:55:07.590Z,83.54
2023-02-03T01:57:39.895Z,83.96
2023-02-03T02:00:08.003Z,81.70
2023-02-03T02:02:34.426Z,82.96
2023-02-03T02:05:14.678Z,84.56
2023-02-03T02:07:42.639Z,84.07
2023-02-03T02:10:09.904Z,82.58
2023-02-03T02:12:36.430Z,83.06
2023-02-03T02:15:03.851Z,81.87
2023-02-03T02:17:39.350Z,82.48
2023-02-03T02:20:05.637Z,82.24
2023-02-03T02:22:50.702Z,82.48
2023-02-03T02:25:26.140Z,83.48
2023-02-03T02:28:03.994Z,82.67
2023-02-03T02:30:49.715Z,82.98
2023-02-03T02:33:40.962Z,81.74
2023-02-03T02:36:07.329Z,82.19
2023-02-03T02:38:48.223Z,81.99
2023-02-03T02:41:52.371Z,82.39
2023-02-03T02:44:35.329Z,81.04
2023-02-03T02:47:11.128Z,82.82
2023-02-03T02:49:44.613Z,82.14
2023-02-03T02:52:14.867Z,83.23
2023-02-03T02:54:46.898Z,84.22
2023-02-03T02:57:16.105Z,83.05
2023-02-03T02:59:42.659Z,81.46
2023-02-03T03:02:11.699Z,82.27
2023-02-03T03:04:38.677Z,82.12
2023-02-03T03:07:11.880Z,81.97
2023-02-03T03:09:50.547Z,82.02
2023-02-03T03:12:29.365Z,81.94
2023-02-03T03:15:00.991Z,80.37
2023-02-03T03:17:34.917Z,80.51
2023-02-03T03:20:08.710Z,80.94
2023-02-03T03:22:41.459Z,80.69
2023-02-03T03:25:15.473Z,80.61
2023-02-03T03:27:48.336Z,80.61
2023-02-03T03:30:23.467Z,81.58
2023-02-03T03:32:50.784Z,80.92
2023-02-03T03:35:17.755Z,81.45
2023-02-03T03:37:50.494Z,81.36
2023-02-03T03:40:25.750Z,81.94
2023-02-03T03:43:01.205Z,81.77
2023-02-03T03:45:38.200Z,82.08
2023-02-03T03:48:34.060Z,81.10
2023-02-03T03:51:05.196Z,82.04
2023-02-03T03:53:34.512Z,82.10
2023-02-03T03:56:03.567Z,81.79
2023-02-03T03:58:32.379Z,81.68
2023-02-03T04:01:05.140Z,81.45
2023-02-03T04:03:56.892Z,81.63
2023-02-03T04:06:23.704Z,80.83
2023-02-03T04:08:50.306Z,81.35
2023-02-03T04:11:36.634Z,82.13
2023-02-03T04:14:03.439Z,82.83
2023-02-03T04:16:29.987Z,81.83
2023-02-03T04:18:58.839Z,82.69
2023-02-03T04:21:25.237Z,82.44
2023-02-03T04:23:52.231Z,82.98
2023-02-03T04:26:18.691Z,81.83
2023-02-03T04:28:45.123Z,81.13
2023-02-03T04:31:11.694Z,81.59
2023-02-03T04:33:38.104Z,81.24
2023-02-03T04:36:04.700Z,80.98
2023-02-03T04:38:31.100Z,81.01
2023-02-03T04:40:57.540Z,81.32
2023-02-03T04:43:23.940Z,81.30
2023-02-03T04:45:50.606Z,80.29
2023-02-03T04:48:17.038Z,81.01
2023-02-03T04:50:43.452Z,81.03
2023-02-03T04:53:09.788Z,80.98
2023-02-03T04:55:36.166Z,80.69
2023-02-03T04:58:02.708Z,80.43
2023-02-03T05:00:29.764Z,80.69
2023-02-03T05:02:56.373Z,79.87
2023-02-03T05:05:22.777Z,80.64
2023-02-03T05:07:49.171Z,80.01
2023-02-03T05:10:23.526Z,80.04
2023-02-03T05:12:50.019Z,79.57
2023-02-03T05:15:16.425Z,80.51
2023-02-03T05:17:42.850Z,80.25
2023-02-03T05:20:10.141Z,79.49
2023-02-03T05:22:36.594Z,78.81
2023-02-03T05:25:04.015Z,78.97
2023-02-03T05:27:30.703Z,79.34
2023-02-03T05:29:57.180Z,78.35
2023-02-03T05:32:23.536Z,78.02
2023-02-03T05:34:49.927Z,78.21
2023-02-03T05:37:16.445Z,78.25
2023-02-03T05:39:43.116Z,79.06
2023-02-03T05:42:09.467Z,78.86
2023-02-03T05:44:40.006Z,77.95
2023-02-03T05:47:06.369Z,79.50
2023-02-03T05:49:32.829Z,79.06
2023-02-03T05:51:59.472Z,78.42
2023-02-03T05:54:25.905Z,78.48
2023-02-03T05:56:52.567Z,78.59
2023-02-03T05:59:18.935Z,78.83
2023-02-03T06:01:45.303Z,76.98
2023-02-03T06:04:11.973Z,78.11
2023-02-03T06:06:38.462Z,77.27
2023-02-03T06:09:07.755Z,77.39
2023-02-03T06:11:35.873Z,78.50
2023-02-03T06:14:02.802Z,77.26
2023-02-03T06:16:29.580Z,77.31
2023-02-03T06:19:00.773Z,77.76
2023-02-03T06:21:28.312Z,77.08
2023-02-03T06:23:55.861Z,76.85
2023-02-03T06:26:22.305Z,77.84
2023-02-03T06:28:48.736Z,77.06
2023-02-03T06:31:15.352Z,77.81
2023-02-03T06:33:41.844Z,76.76
2023-02-03T06:36:08.633Z,77.14
2023-02-03T06:38:34.989Z,76.97
2023-02-03T06:41:01.409Z,77.66
2023-02-03T06:43:30.272Z,77.26
2023-02-03T06:45:56.625Z,77.84
2023-02-03T06:48:23.739Z,77.44
2023-02-03T06:50:50.747Z,77.54
2023-02-03T06:53:17.294Z,78.01
2023-02-03T06:55:43.652Z,78.61
2023-02-03T06:58:09.989Z,78.72
2023-02-03T07:00:36.450Z,77.72
2023-02-03T07:03:03.069Z,77.50
2023-02-03T07:05:29.890Z,77.72
2023-02-03T07:07:56.386Z,77.55
2023-02-03T07:10:23.159Z,78.55
2023-02-03T07:12:50.708Z,79.04
2023-02-03T07:15:17.850Z,78.11
2023-02-03T07:17:44.253Z,77.58
2023-02-03T07:20:11.151Z,77.17
2023-02-03T07:22:38.625Z,77.59
2023-02-03T07:25:05.354Z,76.73
2023-02-03T07:27:31.697Z,76.49
2023-02-03T07:29:58.059Z,77.72
2023-02-03T07:32:24.409Z,77.44
2023-02-03T07:34:50.732Z,77.21
2023-02-03T07:37:17.113Z,76.68
2023-02-03T07:39:43.521Z,76.06
2023-02-03T07:42:09.925Z,77.54
2023-02-03T07:44:36.289Z,76.04
2023-02-03T07:47:02.673Z,77.28
2023-02-03T07:49:29.003Z,78.31
2023-02-03T07:51:56.433Z,79.40
2023-02-03T07:54:22.774Z,78.66
2023-02-03T07:56:49.176Z,78.34
2023-02-03T07:59:16.969Z,77.82
2023-02-03T08:01:43.370Z,77.43
2023-02-03T08:04:12.023Z,77.00
2023-02-03T08:06:38.362Z,75.83
2023-02-03T08:09:04.807Z,77.04
2023-02-03T08:11:32.491Z,76.69
2023-02-03T08:13:58.861Z,76.41
2023-02-03T08:16:25.273Z,76.68
2023-02-03T08:18:52.142Z,75.82
2023-02-03T08:21:18.759Z,76.11
2023-02-03T08:23:45.078Z,76.44
2023-02-03T08:26:11.418Z,76.24
2023-02-03T08:28:37.887Z,76.33
2023-02-03T08:31:11.117Z,75.45
2023-02-03T08:33:37.695Z,75.43
2023-02-03T08:36:05.747Z,75.16
2023-02-03T08:38:32.557Z,75.71
2023-02-03T08:40:59.108Z,75.04
2023-02-03T08:43:25.488Z,76.26
2023-02-03T08:45:52.111Z,76.60
2023-02-03T08:48:18.518Z,77.02
2023-02-03T08:50:51.810Z,75.95
2023-02-03T08:53:18.680Z,76.04
2023-02-03T08:55:45.022Z,76.34
2023-02-03T08:58:11.379Z,77.44
2023-02-03T09:00:37.814Z,79.54
2023-02-03T09:03:04.245Z,78.23
2023-02-03T09:05:31.617Z,78.82
2023-02-03T09:07:58.250Z,80.32
2023-02-03T09:10:24.711Z,80.90
2023-02-03T09:12:51.333Z,83.00
2023-02-03T09:15:17.837Z,82.23
2023-02-03T09:17:44.279Z,82.31
2023-02-03T09:20:13.172Z,82.07
2023-02-03T09:22:39.677Z,81.82
2023-02-03T09:25:07.390Z,81.77
2023-02-03T09:27:33.738Z,81.94
2023-02-03T09:30:00.089Z,81.18
2023-02-03T09:32:26.520Z,80.52
2023-02-03T09:34:52.874Z,82.54
2023-02-03T09:37:19.385Z,80.54
2023-02-03T09:39:45.804Z,81.92
2023-02-03T09:42:28.691Z,82.34
2023-02-03T09:45:07.010Z,84.42
2023-02-03T09:47:38.260Z,83.92
2023-02-03T09:50:11.777Z,84.71
2023-02-03T09:52:40.865Z,85.51
2023-02-03T09:55:20.561Z,84.33
2023-02-03T09:57:57.092Z,83.84
2023-02-03T10:00:31.260Z,85.97
2023-02-03T10:03:23.140Z,86.08
2023-02-03T10:05:57.769Z,85.37
2023-02-03T10:08:51.365Z,87.42
2023-02-03T10:11:49.552Z,87.68
2023-02-03T10:14:42.728Z,90.44
2023-02-03T10:17:26.450Z,90.00
2023-02-03T10:20:01.311Z,90.73
2023-02-03T10:22:30.751Z,91.85
2023-02-03T10:25:07.245Z,93.92
2023-02-03T10:27:35.227Z,94.72
2023-02-03T10:30:17.078Z,94.79
2023-02-03T10:32:43.465Z,93.49
2023-02-03T10:35:13.983Z,93.54
2023-02-03T10:37:48.135Z,94.62
2023-02-03T10:40:16.856Z,95.23
2023-02-03T10:43:15.404Z,94.93
2023-02-03T10:45:41.864Z,93.10
2023-02-03T10:48:15.963Z,94.81
2023-02-03T10:50:47.915Z,91.75
2023-02-03T10:53:40.622Z,93.39
2023-02-03T10:56:13.059Z,92.15
2023-02-03T10:58:46.335Z,94.28
2023-02-03T11:01:15.056Z,92.08
2023-02-03T11:03:44.161Z,91.33
2023-02-03T11:06:16.115Z,90.60
2023-02-03T11:08:46.445Z,89.59
2023-02-03T11:11:25.456Z,90.36
2023-02-03T11:14:13.044Z,91.00
2023-02-03T11:16:41.183Z,90.64
2023-02-03T11:19:19.959Z,90.03
2023-02-03T11:21:50.377Z,90.51
2023-02-03T11:24:32.898Z,89.86
2023-02-03T11:27:07.543Z,88.32
2023-02-03T11:29:37.535Z,88.03
2023-02-03T11:32:18.083Z,88.97
2023-02-03T11:34:57.541Z,86.96
2023-02-03T11:37:31.650Z,88.12
2023-02-03T11:40:26.570Z,86.48
2023-02-03T11:42:53.151Z,86.24
2023-02-03T11:45:29.059Z,87.40
2023-02-03T11:48:06.236Z,86.47
2023-02-03T11:50:51.552Z,84.72
2023-02-03T11:53:57.296Z,86.58
2023-02-03T11:56:50.668Z,85.93
2023-02-03T11:59:35.721Z,86.54
2023-02-03T12:02:22.854Z,85.87
2023-02-03T12:05:11.202Z,85.40
2023-02-03T12:08:15.522Z,83.74
2023-02-03T12:11:14.779Z,82.60
2023-02-03T12:14:00.883Z,82.98
2023-02-03T12:16:52.201Z,83.31
2023-02-03T12:19:27.105Z,83.65
2023-02-03T12:22:14.145Z,84.05
2023-02-03T12:28:54.918Z,81.88
2023-02-03T12:31:39.426Z,81.67
2023-02-03T12:34:22.285Z,81.22
2023-02-03T12:36:58.740Z,80.94
2023-02-03T12:39:51.675Z,82.39
2023-02-03T12:42:51.224Z,81.91
2023-02-03T12:45:33.745Z,81.28
2023-02-03T12:48:19.002Z,81.78
2023-02-03T12:50:52.125Z,81.08
2023-02-03T12:53:31.036Z,80.51
2023-02-03T12:56:06.637Z,80.84
2023-02-03T12:58:47.488Z,81.51
2023-02-03T13:01:30.351Z,81.54
2023-02-03T13:04:16.788Z,81.00
2023-02-03T13:07:21.230Z,81.50
2023-02-03T13:09:56.636Z,80.65
2023-02-03T13:12:37.369Z,81.21
2023-02-03T13:15:22.346Z,81.19
2023-02-03T13:17:55.622Z,82.22
2023-02-03T13:20:24.839Z,81.44
2023-02-03T13:22:53.277Z,79.80
2023-02-03T13:25:28.620Z,81.48
2023-02-03T13:28:13.796Z,80.60
2023-02-03T13:30:59.020Z,80.18
2023-02-03T13:33:36.255Z,80.11
2023-02-03T13:36:18.237Z,80.93
2023-02-03T13:39:09.341Z,80.20
2023-02-03T13:41:39.595Z,81.27
2023-02-03T13:44:13.693Z,81.59
2023-02-03T13:46:43.045Z,81.50
2023-02-03T13:49:10.101Z,82.66
2023-02-03T13:51:45.619Z,81.53
2023-02-03T13:54:26.593Z,81.61
2023-02-03T13:57:01.327Z,80.22
2023-02-03T13:59:42.423Z,80.51
2023-02-03T14:02:24.429Z,81.96
2023-02-03T14:04:54.548Z,81.11
2023-02-03T14:07:24.619Z,80.23
2023-02-03T14:10:12.316Z,81.66
2023-02-03T14:13:05.406Z,81.29
2023-02-03T14:15:33.415Z,81.23
2023-02-03T14:18:01.529Z,79.68
2023-02-03T14:20:27.866Z,79.93
2023-02-03T14:23:06.592Z,79.66
2023-02-03T14:25:39.495Z,80.05
2023-02-03T14:28:10.668Z,79.68
2023-02-03T14:31:06.529Z,81.62
2023-02-03T14:33:49.419Z,80.25
2023-02-03T14:36:29.902Z,80.46
2023-02-03T14:38:59.958Z,79.61
2023-02-03T14:41:31.080Z,78.85
2023-02-03T14:44:16.679Z,78.70
2023-02-03T14:47:10.088Z,77.53
2023-02-03T14:49:45.620Z,79.88
2023-02-03T14:52:33.231Z,77.88
2023-02-03T14:55:14.406Z,77.36
2023-02-03T14:57:49.038Z,79.38
2023-02-03T15:00:26.118Z,78.84
2023-02-03T15:03:10.349Z,79.32
2023-02-03T15:05:45.545Z,79.77
2023-02-03T15:08:36.937Z,80.52
2023-02-03T15:11:28.606Z,78.70
2023-02-03T15:13:57.351Z,80.22
2023-02-03T15:16:25.177Z,79.56
2023-02-03T15:19:00.537Z,78.94
2023-02-03T15:21:27.029Z,80.22
2023-02-03T15:23:54.024Z,80.79
2023-02-03T15:26:25.763Z,80.44
2023-02-03T15:29:00.771Z,80.03
2023-02-03T15:31:37.174Z,81.71
2023-02-03T15:34:17.437Z,82.47
2023-02-03T15:36:48.647Z,83.59
2023-02-03T15:39:23.051Z,84.19
2023-02-03T15:41:54.664Z,84.14
2023-02-03T15:44:41.096Z,86.94
2023-02-03T15:47:21.148Z,86.38
2023-02-03T15:49:58.833Z,87.88
2023-02-03T15:52:28.981Z,88.61
2023-02-03T15:55:09.956Z,90.08
2023-02-03T15:57:37.442Z,88.46
2023-02-03T16:00:28.771Z,89.64
2023-02-03T16:02:57.942Z,90.09
2023-02-03T16:05:28.327Z,92.80
2023-02-03T16:07:55.670Z,92.00
2023-02-03T16:10:31.689Z,92.33
2023-02-03T16:13:23.989Z,92.10
2023-02-03T16:16:08.288Z,93.22
2023-02-03T16:18:36.900Z,95.97
2023-02-03T16:21:05.283Z,92.85
2023-02-03T16:23:32.113Z,92.97
2023-02-03T16:26:02.298Z,92.57
2023-02-03T16:28:47.060Z,92.81
2023-02-03T16:31:35.271Z,94.56
2023-02-03T16:34:30.924Z,94.62
2023-02-03T16:37:17.187Z,93.36
2023-02-03T16:40:02.038Z,93.64
2023-02-03T16:42:56.494Z,93.77
2023-02-03T16:45:42.280Z,92.72
2023-02-03T16:48:29.683Z,92.70
2023-02-03T16:50:59.335Z,91.89
2023-02-03T16:53:28.121Z,91.60
2023-02-03T16:55:57.579Z,90.25
2023-02-03T16:58:24.498Z,90.49
2023-02-03T17:00:52.827Z,89.87
2023-02-03T17:03:24.291Z,89.13
2023-02-03T17:05:51.751Z,88.53
2023-02-03T17:08:20.931Z,87.59
2023-02-03T17:10:50.601Z,87.34
2023-02-03T17:13:19.633Z,87.19
2023-02-03T17:15:49.779Z,86.67
2023-02-03T17:18:16.580Z,86.60
2023-02-03T17:20:44.469Z,86.99
2023-02-03T17:23:12.162Z,85.95
2023-02-03T17:25:39.608Z,85.98
2023-02-03T17:28:08.223Z,85.07
2023-02-03T17:30:35.615Z,85.82
2023-02-03T17:33:03.662Z,85.11
2023-02-03T17:35:30.411Z,83.56
2023-02-03T17:37:57.162Z,83.93
2023-02-03T17:54:10.388Z,82.69
2023-02-03T17:56:36.936Z,82.33
2023-02-03T17:59:05.655Z,82.54
2023-02-03T18:01:32.357Z,83.45
2023-02-03T18:04:03.549Z,83.94
2023-02-03T18:06:32.019Z,83.89
2023-02-03T18:09:01.283Z,84.25
2023-02-03T18:11:29.013Z,84.07
2023-02-03T18:13:56.180Z,85.02
2023-02-03T18:16:28.803Z,85.67
2023-02-03T18:18:56.540Z,85.35
2023-02-03T18:21:24.651Z,84.69
2023-02-03T18:23:51.533Z,86.67
2023-02-03T18:26:19.716Z,85.65
2023-02-03T18:28:46.663Z,86.26
2023-02-03T18:31:15.752Z,87.46
2023-02-03T18:33:44.254Z,87.08
2023-02-03T18:36:12.671Z,86.80
2023-02-03T18:38:40.280Z,86.79
2023-02-03T18:41:19.014Z,86.00
2023-02-03T18:43:46.746Z,87.25
2023-02-03T18:46:17.371Z,86.13
2023-02-03T18:48:52.389Z,86.67
2023-02-03T18:51:21.132Z,87.70
2023-02-03T18:53:51.574Z,89.18
2023-02-03T18:56:24.973Z,89.81
2023-02-03T18:58:51.611Z,89.36
2023-02-03T19:01:29.220Z,87.77
2023-02-03T19:03:57.127Z,87.95
2023-02-03T19:06:24.695Z,88.60
2023-02-03T19:08:51.558Z,88.86
2023-02-03T19:11:19.901Z,88.70
2023-02-03T19:13:46.403Z,89.17
2023-02-03T19:16:16.562Z,88.48
2023-02-03T19:18:44.927Z,88.51
2023-02-03T19:21:12.691Z,86.63
2023-02-03T19:23:40.948Z,88.44
2023-02-03T19:26:07.758Z,88.88
2023-02-03T19:28:35.446Z,88.24
2023-02-03T19:31:07.905Z,87.89
2023-02-03T19:33:34.657Z,87.92
2023-02-03T19:36:01.072Z,86.53
2023-02-03T19:38:27.446Z,86.84
2023-02-03T19:40:53.916Z,85.76
2023-02-03T19:43:20.301Z,85.38
2023-02-03T19:45:46.847Z,85.50
2023-02-03T19:48:13.316Z,84.61
2023-02-03T19:50:40.851Z,84.11
2023-02-03T19:53:09.398Z,84.33
2023-02-03T19:55:35.739Z,84.29
2023-02-03T19:58:02.496Z,84.32
2023-02-03T20:00:29.164Z,84.91
2023-02-03T20:02:55.816Z,86.09
2023-02-03T20:05:22.407Z,85.07
2023-02-03T20:07:48.844Z,84.02
2023-02-03T20:10:15.508Z,84.59
2023-02-03T20:12:41.867Z,84.19
2023-02-03T20:15:08.275Z,83.65
2023-02-03T20:17:34.649Z,84.13
2023-02-03T20:20:01.158Z,83.28
2023-02-03T20:22:27.617Z,82.82
2023-02-03T20:24:53.996Z,83.47
2023-02-03T20:27:20.594Z,83.50
2023-02-03T20:29:48.662Z,82.93
2023-02-03T20:32:15.307Z,82.95
2023-02-03T20:34:41.646Z,81.99
2023-02-03T20:37:08.453Z,82.37
2023-02-03T20:39:34.979Z,82.00
2023-02-03T20:42:01.387Z,82.93
2023-02-03T20:44:27.896Z,81.28
2023-02-03T20:46:55.755Z,79.31
2023-02-03T20:49:22.266Z,79.20
2023-02-03T20:51:48.623Z,78.62
2023-02-03T20:54:18.714Z,77.51
2023-02-03T20:56:45.673Z,77.34
2023-02-03T20:59:15.079Z,78.89
2023-02-03T21:01:41.621Z,78.78
2023-02-03T21:04:34.023Z,79.10
2023-02-03T21:07:01.419Z,79.64
2023-02-03T21:09:27.929Z,79.71
2023-02-03T21:11:55.390Z,79.81
2023-02-03T21:14:25.303Z,79.36
2023-02-03T21:16:53.960Z,78.89
2023-02-03T21:19:33.051Z,79.07
2023-02-03T21:22:04.052Z,78.69
2023-02-03T21:24:35.594Z,78.63
2023-02-03T21:27:02.361Z,77.48
2023-02-03T21:29:33.779Z,78.03
2023-02-03T21:32:00.358Z,77.23
2023-02-03T21:34:34.877Z,76.89
2023-02-03T21:37:12.295Z,77.57
2023-02-03T21:39:38.628Z,77.18
2023-02-03T21:42:40.774Z,77.30
2023-02-03T21:45:24.814Z,77.31
2023-02-03T21:47:52.488Z,78.31
2023-02-03T21:50:33.643Z,78.02
2023-02-03T21:53:09.969Z,78.06
2023-02-03T21:55:38.172Z,79.16
2023-02-03T21:58:31.640Z,79.99
2023-02-03T22:00:59.950Z,79.93
2023-02-03T22:03:40.593Z,79.95
2023-02-03T22:06:13.575Z,79.11
2023-02-03T22:08:43.386Z,79.17
2023-02-03T22:11:09.857Z,80.05
2023-02-03T22:13:36.635Z,79.64
2023-02-03T22:16:03.923Z,80.88
2023-02-03T22:18:30.849Z,81.18
2023-02-03T22:20:57.341Z,81.79
2023-02-03T22:23:23.927Z,81.56
2023-02-03T22:26:40.060Z,81.58
2023-02-03T22:29:11.087Z,81.62
2023-02-03T22:31:37.628Z,80.31
2023-02-03T22:34:06.796Z,80.38
2023-02-03T22:36:33.234Z,80.28
2023-02-03T22:39:01.319Z,80.13
2023-02-03T22:41:37.425Z,79.74
2023-02-03T22:44:03.831Z,80.87
2023-02-03T22:46:38.384Z,79.66
2023-02-03T22:49:04.822Z,78.21
2023-02-03T22:51:31.155Z,78.55
2023-02-03T22:53:57.541Z,77.73
2023-02-03T22:56:23.889Z,77.99
2023-02-03T22:58:50.251Z,77.98
2023-02-03T23:01:16.638Z,78.21
2023-02-03T23:03:43.058Z,78.10
2023-02-03T23:06:09.375Z,76.87
2023-02-03T23:08:35.751Z,76.65
2023-02-03T23:11:02.672Z,76.27
2023-02-03T23:13:29.132Z,75.84
2023-02-03T23:15:55.555Z,75.55
2023-02-03T23:18:21.963Z,75.78
2023-02-03T23:20:48.279Z,75.03
2023-02-03T23:23:14.632Z,75.46
2023-02-03T23:25:40.963Z,75.02
2023-02-03T23:28:07.418Z,75.69
2023-02-03T23:30:34.109Z,76.26
2023-02-03T23:33:00.506Z,76.66
2023-02-03T23:35:45.179Z,77.05
2023-02-03T23:38:12.258Z,77.88
2023-02-03T23:40:38.604Z,77.78
2023-02-03T23:43:04.979Z,77.98
2023-02-03T23:45:31.386Z,77.73
2023-02-03T23:47:57.909Z,77.59
2023-02-03T23:50:24.244Z,77.35
2023-02-03T23:52:50.611Z,77.14
2023-02-03T23:55:19.218Z,76.79
2023-02-03T23:57:45.835Z,76.52
